Time;durP1;ratioP1;P1;durP2;ratioP2;P2;SDS_P1;SDS_P2;PMS_P1;PMS_P2;Temp;Humidity;BMP_temperature;BMP_pressure;BME280_temperature;BME280_humidity;BME280_pressure;Samples;Min_cycle;Max_cycle;Signal;HPM_P1;HPM_P2
2023/04/10 00:01:01;;;;;;;6.40;4.40;;;;;;;11.75;58.20;100974.55;108118;1285;22004;-62
2023/04/10 00:03:36;;;;;;;7.60;4.10;;;;;;;11.67;57.62;100973.39;108037;1285;22060;-63
2023/04/10 00:06:02;;;;;;;7.40;4.60;;;;;;;11.60;57.61;100972.90;108026;1285;21997;-69
2023/04/10 00:08:31;;;;;;;6.00;4.50;;;;;;;11.54;57.45;100971.19;108071;1285;21986;-62
2023/04/10 00:10:57;;;;;;;6.70;4.90;;;;;;;11.50;57.39;100971.91;108007;1285;21983;-62
2023/04/10 00:13:23;;;;;;;9.00;5.10;;;;;;;11.45;57.45;100970.36;108040;1285;22019;-69
2023/04/10 00:16:04;;;;;;;7.80;5.30;;;;;;;11.41;57.58;100968.45;108031;1285;22003;-62
2023/04/10 00:18:31;;;;;;;9.30;5.60;;;;;;;11.36;57.25;100966.21;108098;1285;21978;-69
2023/04/10 00:20:56;;;;;;;11.80;6.30;;;;;;;11.31;57.19;100963.42;108095;1285;21987;-62
2023/04/10 00:23:37;;;;;;;8.90;5.40;;;;;;;11.26;57.25;100963.29;108045;1285;21991;-62
2023/04/10 00:26:05;;;;;;;7.50;4.40;;;;;;;11.20;57.10;100965.08;108052;1285;21994;-69
2023/04/10 00:28:31;;;;;;;7.60;4.30;;;;;;;11.13;56.95;100965.46;108258;1285;22003;-69
2023/04/10 00:31:05;;;;;;;7.70;4.80;;;;;;;11.06;56.89;100965.14;108090;1285;21993;-64
2023/04/10 00:33:41;;;;;;;9.00;4.90;;;;;;;11.02;57.03;100962.71;108067;1285;22447;-62
2023/04/10 00:36:11;;;;;;;7.00;4.50;;;;;;;11.00;57.14;100963.95;108208;1285;21991;-62
2023/04/10 00:38:36;;;;;;;6.20;4.40;;;;;;;10.98;57.24;100963.77;108257;1273;21997;-63
2023/04/10 00:41:15;;;;;;;6.50;4.30;;;;;;;10.96;57.42;100960.27;108220;1285;21983;-69
2023/04/10 00:43:43;;;;;;;6.90;4.10;;;;;;;10.94;57.71;100960.10;108122;1285;21955;-69
2023/04/10 00:46:09;;;;;;;6.90;4.60;;;;;;;10.92;57.84;100957.84;108045;1285;21987;-62
2023/04/10 00:48:38;;;;;;;7.00;4.80;;;;;;;10.90;57.88;100956.79;108117;1273;21984;-69
2023/04/10 00:51:04;;;;;;;7.00;5.00;;;;;;;10.89;58.17;100954.52;108187;1284;21984;-65
2023/04/10 00:53:30;;;;;;;6.60;5.30;;;;;;;10.89;58.30;100952.58;108196;1285;22022;-62
2023/04/10 00:55:56;;;;;;;6.80;4.30;;;;;;;10.89;58.16;100953.27;108196;1285;21993;-69
2023/04/10 00:58:22;;;;;;;6.90;5.00;;;;;;;10.87;58.47;100952.41;108125;1285;21988;-69
2023/04/10 01:00:51;;;;;;;8.00;4.80;;;;;;;10.89;58.45;100950.47;108129;1285;21989;-62
2023/04/10 01:03:17;;;;;;;7.70;4.90;;;;;;;10.89;58.55;100951.87;108254;1285;22243;-63
2023/04/10 01:05:46;;;;;;;6.80;4.90;;;;;;;10.86;58.59;100949.95;108041;1285;21981;-69
2023/04/10 01:08:19;;;;;;;7.80;5.20;;;;;;;10.85;58.81;100950.66;108107;1285;21985;-62
2023/04/10 01:11:17;;;;;;;8.90;5.60;;;;;;;10.85;58.94;100951.36;108042;1285;21992;-62
2023/04/10 01:14:00;;;;;;;8.10;5.70;;;;;;;10.85;59.12;100948.90;108134;1286;21986;-62
2023/04/10 01:16:30;;;;;;;7.00;5.00;;;;;;;10.87;59.17;100943.98;108139;1286;21985;-62
2023/04/10 01:18:58;;;;;;;7.70;5.00;;;;;;;10.89;59.31;100943.63;108098;1286;22063;-62
2023/04/10 01:21:24;;;;;;;7.00;4.80;;;;;;;10.91;59.35;100941.34;108096;1285;21986;-69
2023/04/10 01:24:01;;;;;;;7.90;5.10;;;;;;;10.92;59.22;100943.96;108219;1285;22025;-69
2023/04/10 01:26:46;;;;;;;7.70;5.40;;;;;;;10.94;59.33;100945.53;108273;1285;22000;-69
2023/04/10 01:29:14;;;;;;;7.10;5.30;;;;;;;10.95;59.46;100941.14;108158;1285;21993;-62
2023/04/10 01:32:07;;;;;;;7.50;5.30;;;;;;;10.97;59.56;100937.44;108276;1286;21997;-69
2023/04/10 01:34:44;;;;;;;7.40;4.90;;;;;;;10.96;59.58;100932.17;108155;1286;23719;-69
2023/04/10 01:37:15;;;;;;;7.80;5.50;;;;;;;10.97;59.65;100931.30;108182;1286;22164;-62
2023/04/10 01:39:44;;;;;;;7.80;5.00;;;;;;;10.97;59.71;100928.30;108139;1286;21988;-62
2023/04/10 01:42:10;;;;;;;7.70;5.20;;;;;;;10.98;59.80;100925.15;108200;1286;21986;-69
2023/04/10 01:44:37;;;;;;;7.70;5.10;;;;;;;10.98;59.90;100924.45;108114;1286;22024;-69
2023/04/10 01:47:03;;;;;;;9.00;5.40;;;;;;;10.98;59.86;100920.23;108181;1286;21990;-61
2023/04/10 01:49:30;;;;;;;7.10;4.90;;;;;;;11.00;59.92;100920.05;108177;1285;22006;-62
2023/04/10 01:51:57;;;;;;;8.20;4.90;;;;;;;11.03;60.12;100919.67;108135;1286;22005;-62
2023/04/10 01:54:27;;;;;;;7.50;5.10;;;;;;;11.06;60.05;100921.23;108167;1286;21991;-70
2023/04/10 01:56:53;;;;;;;8.20;5.70;;;;;;;11.10;60.12;100922.09;108095;1286;22006;-62
2023/04/10 01:59:19;;;;;;;7.60;5.30;;;;;;;11.12;60.41;100924.19;108246;1285;22042;-69
2023/04/10 02:01:45;;;;;;;7.40;5.70;;;;;;;11.14;60.64;100922.08;108197;1273;21989;-69
2023/04/10 02:04:11;;;;;;;7.80;5.30;;;;;;;11.15;60.62;100920.48;108182;1281;21991;-69
2023/04/10 02:06:41;;;;;;;8.40;5.50;;;;;;;11.18;60.56;100916.42;108202;1285;21995;-69
2023/04/10 02:09:15;;;;;;;7.60;4.80;;;;;;;11.20;60.75;100913.95;108214;1286;22004;-69
2023/04/10 02:11:54;;;;;;;8.50;5.20;;;;;;;11.18;60.69;100915.02;108313;1286;21987;-69
2023/04/10 02:14:21;;;;;;;7.20;5.00;;;;;;;11.17;60.82;100913.27;106846;1286;1003206;-62
2023/04/10 02:16:49;;;;;;;7.90;5.20;;;;;;;11.17;61.03;100913.80;108162;1285;21999;-69
2023/04/10 02:19:15;;;;;;;7.30;4.90;;;;;;;11.16;61.15;100914.51;108219;1285;22966;-62
2023/04/10 02:21:44;;;;;;;7.40;5.30;;;;;;;11.16;61.08;100911.52;108195;1284;21989;-69
2023/04/10 02:24:09;;;;;;;8.30;5.60;;;;;;;11.18;61.11;100909.58;108166;1285;21988;-63
2023/04/10 02:26:49;;;;;;;7.20;5.20;;;;;;;11.18;61.09;100909.92;108147;1285;22022;-67
2023/04/10 02:29:20;;;;;;;6.90;5.10;;;;;;;11.18;61.26;100908.87;108271;1285;21991;-69
2023/04/10 02:31:46;;;;;;;7.70;4.90;;;;;;;11.15;61.28;100906.44;108153;1285;21987;-69
2023/04/10 02:34:12;;;;;;;7.00;5.00;;;;;;;11.12;61.19;100905.93;108183;1281;21980;-69
2023/04/10 02:36:39;;;;;;;8.20;4.90;;;;;;;11.11;61.20;100905.75;108175;1285;21992;-69
2023/04/10 02:39:06;;;;;;;6.30;4.60;;;;;;;11.13;61.26;100902.41;108157;1280;22024;-63
2023/04/10 02:41:32;;;;;;;7.50;5.20;;;;;;;11.14;61.14;100906.61;108120;1286;22048;-62
2023/04/10 02:43:58;;;;;;;7.10;4.90;;;;;;;11.15;60.91;100906.44;108120;1286;21990;-63
2023/04/10 02:46:24;;;;;;;6.70;4.60;;;;;;;11.15;60.91;100905.20;108139;1285;21996;-61
2023/04/10 02:48:51;;;;;;;8.60;5.90;;;;;;;11.13;60.75;100902.92;108155;1285;21989;-63
2023/04/10 02:51:17;;;;;;;7.70;4.90;;;;;;;11.12;60.60;100905.39;108212;1285;21990;-69
2023/04/10 02:53:47;;;;;;;7.90;4.80;;;;;;;11.11;60.54;100902.95;108143;1284;21986;-69
2023/04/10 02:56:12;;;;;;;8.00;5.10;;;;;;;11.10;60.39;100907.16;108100;1284;23643;-62
2023/04/10 02:58:38;;;;;;;7.40;4.90;;;;;;;11.09;60.44;100906.81;108184;1284;21995;-63
2023/04/10 03:01:08;;;;;;;7.70;4.90;;;;;;;11.08;60.39;100904.36;108138;1284;21991;-68
2023/04/10 03:03:34;;;;;;;9.30;5.30;;;;;;;11.04;60.24;100901.94;108151;1281;22024;-68
2023/04/10 03:06:07;;;;;;;7.00;4.60;;;;;;;11.01;60.36;100904.95;108123;1284;21987;-63
2023/04/10 03:08:33;;;;;;;7.20;5.30;;;;;;;10.96;60.38;100905.84;108064;1284;22931;-69
2023/04/10 03:10:58;;;;;;;8.90;5.80;;;;;;;10.91;60.40;100903.92;108118;1284;21992;-68
2023/04/10 03:13:24;;;;;;;8.60;5.90;;;;;;;10.87;60.88;100906.23;108100;1284;21981;-62
2023/04/10 03:15:50;;;;;;;7.60;5.50;;;;;;;10.87;60.75;100910.80;108123;1284;21983;-62
2023/04/10 03:18:16;;;;;;;8.70;6.20;;;;;;;10.87;60.94;100912.20;108118;1284;22186;-62
2023/04/10 03:20:47;;;;;;;9.20;5.60;;;;;;;10.88;60.95;100913.07;108125;1280;23059;-69
2023/04/10 03:23:13;;;;;;;7.70;5.60;;;;;;;10.89;60.95;100911.14;108177;1284;21995;-69
2023/04/10 03:25:40;;;;;;;7.30;5.80;;;;;;;10.91;61.13;100910.07;108162;1284;21992;-69
2023/04/10 03:28:06;;;;;;;7.90;5.20;;;;;;;10.93;61.27;100915.35;108140;1284;21996;-68
2023/04/10 03:30:34;;;;;;;8.20;5.10;;;;;;;10.95;61.18;100914.98;108159;1284;21989;-68
2023/04/10 03:33:00;;;;;;;7.30;4.80;;;;;;;10.96;61.13;100916.56;108198;1284;22023;-68
2023/04/10 03:35:26;;;;;;;7.70;4.50;;;;;;;10.98;61.07;100919.36;108199;1284;21977;-68
2023/04/10 03:37:52;;;;;;;7.30;5.50;;;;;;;10.97;61.15;100924.27;108403;1284;21996;-63
2023/04/10 03:40:18;;;;;;;8.60;5.10;;;;;;;10.97;61.24;100927.09;108170;1286;21986;-63
2023/04/10 03:42:45;;;;;;;10.40;5.70;;;;;;;10.97;61.23;100925.85;108096;1284;23712;-68
2023/04/10 03:45:11;;;;;;;8.60;5.10;;;;;;;10.99;61.22;100923.39;108107;1284;21984;-63
2023/04/10 03:47:38;;;;;;;11.00;5.10;;;;;;;11.01;61.19;100928.47;108262;1284;22133;-63
2023/04/10 03:50:05;;;;;;;10.70;5.70;;;;;;;11.03;61.35;100927.41;108184;1284;21995;-69
2023/04/10 03:52:34;;;;;;;7.90;4.70;;;;;;;11.05;61.42;100931.25;108156;1281;22028;-63
2023/04/10 03:55:00;;;;;;;6.50;4.50;;;;;;;11.10;61.87;100932.11;108235;1284;21989;-62
2023/04/10 03:57:26;;;;;;;10.80;5.40;;;;;;;11.16;61.75;100935.23;108083;1286;21987;-63
2023/04/10 03:59:51;;;;;;;14.20;6.30;;;;;;;11.19;61.53;100932.92;108119;1286;21989;-66
2023/04/10 04:02:17;;;;;;;8.30;4.90;;;;;;;11.20;61.57;100936.60;108081;1286;21986;-66
2023/04/10 04:04:43;;;;;;;7.60;5.30;;;;;;;11.22;61.37;100936.96;108080;1273;22026;-66
2023/04/10 04:07:12;;;;;;;10.70;5.30;;;;;;;11.23;61.23;100939.59;108169;1285;21998;-67
2023/04/10 04:09:39;;;;;;;7.00;4.10;;;;;;;11.25;61.45;100936.59;108136;1285;21999;-68
2023/04/10 04:12:10;;;;;;;7.50;5.00;;;;;;;11.28;61.40;100937.80;108109;1285;21988;-68
2023/04/10 04:14:37;;;;;;;7.80;5.00;;;;;;;11.28;61.19;100936.91;108132;1273;21993;-68
2023/04/10 04:17:03;;;;;;;9.40;5.90;;;;;;;11.27;61.40;100939.39;108077;1286;21986;-67
2023/04/10 04:19:35;;;;;;;8.90;5.00;;;;;;;11.28;61.77;100942.70;108137;1286;21992;-64
2023/04/10 04:22:03;;;;;;;9.20;6.20;;;;;;;11.29;62.07;100941.48;108074;1284;21998;-67
2023/04/10 04:24:29;;;;;;;9.50;5.60;;;;;;;11.30;62.53;100942.87;108234;1284;22232;-67
2023/04/10 04:27:01;;;;;;;8.00;5.70;;;;;;;11.33;62.92;100943.91;108337;1283;21985;-63
2023/04/10 04:29:27;;;;;;;10.00;5.80;;;;;;;11.40;63.45;100948.09;108134;1284;21991;-68
2023/04/10 04:31:53;;;;;;;8.30;5.50;;;;;;;11.49;63.54;100952.59;108157;1280;21989;-65
2023/04/10 04:34:19;;;;;;;9.00;5.30;;;;;;;11.58;63.84;100956.21;108129;1284;21985;-64
2023/04/10 04:36:44;;;;;;;12.10;5.90;;;;;;;11.68;64.14;100957.37;108092;1284;21971;-68
2023/04/10 04:39:10;;;;;;;7.70;5.10;;;;;;;11.80;65.09;100954.83;108070;1284;21983;-64
2023/04/10 04:41:38;;;;;;;8.60;5.90;;;;;;;11.91;65.13;100952.96;108301;1280;22007;-69
2023/04/10 04:44:03;;;;;;;8.10;5.90;;;;;;;12.03;65.52;100952.17;108224;1283;21980;-64
2023/04/10 04:46:29;;;;;;;7.80;5.90;;;;;;;12.15;65.76;100952.77;108156;1283;21988;-64
2023/04/10 04:48:56;;;;;;;11.20;6.10;;;;;;;12.27;66.10;100956.20;108351;1283;21983;-69
2023/04/10 04:51:22;;;;;;;8.10;5.30;;;;;;;12.38;65.98;100959.08;108138;1284;137618;-65
2023/04/10 04:53:48;;;;;;;8.70;5.90;;;;;;;12.48;66.44;100959.50;108346;1283;22020;-69
2023/04/10 04:56:14;;;;;;;9.00;6.40;;;;;;;12.59;66.97;100956.39;108431;1283;22012;-64
2023/04/10 04:58:40;;;;;;;8.90;5.70;;;;;;;12.71;67.60;100955.00;108365;1283;21978;-69
2023/04/10 05:01:11;;;;;;;7.90;5.90;;;;;;;12.84;67.56;100954.86;108298;1283;21994;-68
2023/04/10 05:03:38;;;;;;;8.00;5.50;;;;;;;13.00;68.11;100953.60;108229;1283;21982;-70
2023/04/10 05:06:04;;;;;;;9.70;5.50;;;;;;;13.14;67.85;100958.17;108287;1283;21985;-65
2023/04/10 05:08:34;;;;;;;8.60;5.40;;;;;;;13.26;68.03;100955.52;108263;1283;23071;-65
2023/04/10 05:11:02;;;;;;;7.40;5.20;;;;;;;13.39;68.43;100951.13;108278;1283;21993;-66
2023/04/10 05:13:28;;;;;;;8.30;5.50;;;;;;;13.53;68.43;100953.94;108312;1283;21988;-66
2023/04/10 05:15:56;;;;;;;8.10;5.40;;;;;;;13.68;69.93;100954.94;108355;1283;21981;-69
2023/04/10 05:18:22;;;;;;;7.60;5.60;;;;;;;13.83;69.34;100960.17;108418;1283;23740;-63
2023/04/10 05:20:48;;;;;;;8.10;5.80;;;;;;;13.98;69.90;100959.21;108269;1283;21985;-67
2023/04/10 05:23:18;;;;;;;19.80;6.40;;;;;;;14.17;69.65;100956.05;108238;1284;22040;-64
2023/04/10 05:25:45;;;;;;;8.30;5.30;;;;;;;14.40;70.53;100955.64;108214;1283;21996;-69
2023/04/10 05:28:10;;;;;;;7.60;5.60;;;;;;;14.58;70.34;100948.56;108197;1283;22758;-69
2023/04/10 05:30:36;;;;;;;6.40;4.90;;;;;;;14.73;69.81;100947.08;108261;1284;21983;-67
2023/04/10 05:33:02;;;;;;;9.00;5.40;;;;;;;14.83;69.53;100947.91;108207;1284;21989;-65
2023/04/10 05:35:28;;;;;;;8.10;5.90;;;;;;;14.93;69.61;100947.89;108191;1284;21983;-63
2023/04/10 05:37:54;;;;;;;9.00;5.30;;;;;;;15.06;70.05;100947.79;108218;1284;21978;-66
2023/04/10 05:40:20;;;;;;;9.50;5.40;;;;;;;15.19;70.75;100945.40;108223;1284;21977;-65
2023/04/10 05:42:47;;;;;;;7.60;6.10;;;;;;;15.31;70.64;100944.94;108235;1284;22016;-63
2023/04/10 05:45:13;;;;;;;7.40;5.50;;;;;;;15.46;71.46;100948.48;108187;1284;22021;-63
2023/04/10 05:47:40;;;;;;;6.90;5.60;;;;;;;15.61;70.79;100947.62;108305;1284;21982;-64
2023/04/10 05:50:06;;;;;;;5.80;4.70;;;;;;;15.69;70.12;100945.10;108216;1284;21985;-65
2023/04/10 05:52:32;;;;;;;7.80;5.70;;;;;;;15.80;70.04;100945.72;108258;1284;22002;-66
2023/04/10 05:54:58;;;;;;;8.30;5.30;;;;;;;15.90;69.78;100945.31;108214;1283;21989;-64
2023/04/10 05:57:26;;;;;;;9.60;6.50;;;;;;;16.00;70.97;100941.17;108367;1283;21988;-64
2023/04/10 05:59:52;;;;;;;11.80;6.40;;;;;;;16.19;72.38;100939.61;108317;1283;21984;-67
2023/04/10 06:02:17;;;;;;;8.30;6.20;;;;;;;16.31;71.35;100944.44;108291;1283;21990;-64
2023/04/10 06:04:43;;;;;;;9.00;5.80;;;;;;;16.39;71.54;100939.09;108234;1283;22089;-65
2023/04/10 06:07:09;;;;;;;19.30;6.60;;;;;;;16.47;71.11;100935.13;108239;1284;21979;-67
2023/04/10 06:09:35;;;;;;;16.00;6.20;;;;;;;16.57;71.33;100931.67;108269;1284;22004;-67
2023/04/10 06:12:01;;;;;;;9.20;6.10;;;;;;;16.68;71.28;100929.59;108200;1284;21991;-65
2023/04/10 06:14:27;;;;;;;9.10;5.10;;;;;;;16.78;70.89;100931.97;108216;1284;21985;-65
2023/04/10 06:16:53;;;;;;;6.80;5.30;;;;;;;16.83;69.70;100933.07;108180;1285;21986;-67
2023/04/10 06:19:20;;;;;;;6.60;5.10;;;;;;;16.90;71.19;100932.86;108179;1285;22067;-67
2023/04/10 06:21:46;;;;;;;6.00;5.00;;;;;;;17.00;70.49;100929.20;108171;1285;21988;-66
2023/04/10 06:24:14;;;;;;;8.00;6.00;;;;;;;17.09;71.17;100931.63;108300;1284;21989;-65
2023/04/10 06:26:40;;;;;;;7.00;4.80;;;;;;;17.31;73.56;100934.11;108200;1284;23661;-65
2023/04/10 06:29:06;;;;;;;6.50;5.40;;;;;;;17.56;74.32;100932.78;108227;1284;21993;-66
2023/04/10 06:31:34;;;;;;;9.50;5.90;;;;;;;17.85;75.33;100928.65;107485;1284;1002606;-67
2023/04/10 06:34:00;;;;;;;6.10;4.10;;;;;;;18.09;75.71;100925.71;108118;1285;21986;-67
2023/04/10 06:36:26;;;;;;;5.90;4.50;;;;;;;18.32;73.94;100921.38;108171;1281;21987;-67
2023/04/10 06:38:53;;;;;;;6.90;4.50;;;;;;;18.50;74.21;100919.66;108220;1285;21987;-67
2023/04/10 06:41:19;;;;;;;6.10;4.40;;;;;;;18.61;73.22;100920.65;108271;1285;21985;-63
2023/04/10 06:43:49;;;;;;;7.70;4.50;;;;;;;18.72;74.21;100920.09;108212;1284;21984;-65
2023/04/10 06:46:15;;;;;;;5.70;4.20;;;;;;;18.93;74.43;100919.64;108215;1284;21984;-65
2023/04/10 06:48:40;;;;;;;8.50;4.30;;;;;;;19.12;73.63;100917.52;108274;1283;22018;-66
2023/04/10 06:51:06;;;;;;;5.70;4.50;;;;;;;19.27;72.96;100914.98;108313;1283;22187;-66
2023/04/10 06:53:32;;;;;;;6.40;4.80;;;;;;;19.37;72.74;100916.35;108248;1283;22007;-68
2023/04/10 06:56:07;;;;;;;6.90;5.50;;;;;;;19.54;73.46;100914.60;108228;1283;23631;-66
2023/04/10 06:58:46;;;;;;;5.90;4.20;;;;;;;19.78;73.32;100920.55;108232;1283;22932;-66
2023/04/10 07:01:12;;;;;;;5.20;4.00;;;;;;;19.93;72.20;100920.33;108274;1284;22018;-67
2023/04/10 07:03:38;;;;;;;7.50;4.50;;;;;;;20.02;71.38;100916.02;108159;1283;21992;-67
2023/04/10 07:06:12;;;;;;;6.40;4.80;;;;;;;20.09;70.12;100917.86;108203;1284;21982;-67
2023/04/10 07:08:54;;;;;;;6.10;4.50;;;;;;;20.05;68.68;100913.23;108215;1284;22006;-67
2023/04/10 07:11:20;;;;;;;5.10;4.40;;;;;;;20.08;70.56;100914.48;108187;1284;21988;-67
2023/04/10 07:13:46;;;;;;;5.00;4.00;;;;;;;20.26;71.89;100913.36;108223;1285;23647;-67
2023/04/10 07:16:12;;;;;;;7.10;4.40;;;;;;;20.47;71.88;100910.98;108204;1285;21995;-68
2023/04/10 07:18:40;;;;;;;6.80;4.20;;;;;;;20.62;69.84;100913.34;108227;1285;21974;-69
2023/04/10 07:21:10;;;;;;;12.70;3.90;;;;;;;20.66;68.55;100916.56;108163;1284;21988;-67
2023/04/10 07:23:50;;;;;;;6.40;4.70;;;;;;;20.70;68.96;100916.21;108076;1284;21986;-68
2023/04/10 07:26:16;;;;;;;6.00;4.50;;;;;;;20.79;69.55;100919.20;108189;1284;21984;-68
2023/04/10 07:28:42;;;;;;;4.90;4.10;;;;;;;20.90;68.97;100925.28;108189;1284;22018;-67
2023/04/10 07:31:09;;;;;;;5.50;4.00;;;;;;;21.07;69.19;100922.70;108355;1283;21990;-67
2023/04/10 07:33:35;;;;;;;6.30;4.20;;;;;;;21.27;68.86;100926.95;108355;1283;21989;-67
2023/04/10 07:36:02;;;;;;;6.10;4.10;;;;;;;21.45;68.92;100922.13;108409;1283;21992;-66
2023/04/10 07:38:28;;;;;;;10.50;4.50;;;;;;;21.64;68.22;100920.34;108226;1282;21976;-67
2023/04/10 07:40:57;;;;;;;6.00;4.40;;;;;;;21.75;67.26;100919.42;108233;1284;22958;-66
2023/04/10 07:43:23;;;;;;;8.50;4.80;;;;;;;21.80;65.46;100918.30;108189;1284;22224;-67
2023/04/10 07:45:49;;;;;;;6.20;4.80;;;;;;;21.74;64.51;100921.99;108229;1284;21974;-67
2023/04/10 07:48:15;;;;;;;6.30;4.90;;;;;;;21.65;64.65;100921.91;108245;1284;23807;-68
2023/04/10 07:50:42;;;;;;;8.80;4.30;;;;;;;21.70;66.26;100920.02;108217;1284;21986;-68
2023/04/10 07:53:08;;;;;;;9.00;4.00;;;;;;;21.89;66.81;100915.85;108200;1284;21981;-68
2023/04/10 07:55:38;;;;;;;10.80;3.90;;;;;;;22.14;66.78;100922.10;108343;1280;21991;-67
2023/04/10 07:58:05;;;;;;;9.10;4.10;;;;;;;22.38;66.16;100921.73;108390;1283;21993;-68
2023/04/10 08:00:32;;;;;;;5.50;3.70;;;;;;;22.59;65.99;100916.18;108116;1280;22453;-67
2023/04/10 08:02:58;;;;;;;9.00;4.20;;;;;;;22.77;64.96;100915.35;108155;1284;23068;-68
2023/04/10 08:05:24;;;;;;;9.70;4.20;;;;;;;22.94;65.38;100912.30;108129;1284;22029;-67
2023/04/10 08:07:52;;;;;;;9.60;4.20;;;;;;;23.16;65.72;100907.66;108165;1284;23634;-67
2023/04/10 08:10:18;;;;;;;5.70;4.00;;;;;;;23.46;65.74;100908.16;108562;1284;23736;-67
2023/04/10 08:12:46;;;;;;;4.90;4.10;;;;;;;23.68;64.54;100903.26;108237;1284;22007;-67
2023/04/10 08:15:13;;;;;;;4.50;3.80;;;;;;;23.78;62.12;100900.73;108232;1283;21983;-67
2023/04/10 08:17:39;;;;;;;5.70;3.80;;;;;;;23.81;61.91;100898.02;108405;1283;21984;-67
2023/04/10 08:20:06;;;;;;;6.20;3.40;;;;;;;23.83;60.88;100898.09;108393;1283;22450;-68
2023/04/10 08:22:34;;;;;;;9.40;3.50;;;;;;;23.72;59.09;100900.20;108380;1283;23049;-67
2023/04/10 08:25:02;;;;;;;4.80;3.50;;;;;;;23.55;59.24;100895.42;108398;1283;21980;-68
2023/04/10 08:27:47;;;;;;;4.20;3.00;;;;;;;23.39;58.76;100892.06;108203;1284;22001;-67
2023/04/10 08:30:13;;;;;;;4.20;3.10;;;;;;;23.21;59.07;100889.48;108205;1284;21990;-67
2023/04/10 08:32:46;;;;;;;4.70;3.10;;;;;;;23.20;61.07;100889.70;108345;1283;22020;-66
2023/04/10 08:35:13;;;;;;;6.40;3.10;;;;;;;23.29;60.88;100889.39;108210;1284;21982;-67
2023/04/10 08:37:39;;;;;;;5.70;3.00;;;;;;;23.39;60.19;100889.94;108217;1284;22018;-67
2023/04/10 08:40:05;;;;;;;4.70;3.00;;;;;;;23.49;60.58;100883.80;108169;1283;22020;-67
2023/04/10 08:42:35;;;;;;;3.20;2.40;;;;;;;23.62;60.48;100879.63;108223;1284;23048;-67
2023/04/10 08:45:01;;;;;;;4.40;3.20;;;;;;;23.73;60.11;100877.02;108244;1284;21984;-67
2023/04/10 08:47:27;;;;;;;3.10;2.50;;;;;;;23.82;59.76;100873.45;108299;1284;21993;-67
2023/04/10 08:49:56;;;;;;;2.90;2.40;;;;;;;23.91;59.81;100867.72;108238;1284;21984;-66
2023/04/10 08:52:25;;;;;;;3.50;2.60;;;;;;;24.06;60.78;100867.71;108221;1284;22468;-67
2023/04/10 08:54:53;;;;;;;3.70;2.50;;;;;;;24.28;61.02;100861.88;108115;1284;21992;-67
2023/04/10 08:57:22;;;;;;;4.00;2.70;;;;;;;24.53;60.78;100858.71;108198;1284;22753;-67
2023/04/10 08:59:52;;;;;;;3.10;2.30;;;;;;;24.73;59.49;100853.15;108284;1283;21983;-66
2023/04/10 09:02:23;;;;;;;3.10;2.60;;;;;;;24.81;57.97;100850.48;108202;1284;21990;-66
2023/04/10 09:04:51;;;;;;;5.20;2.80;;;;;;;24.77;56.43;100852.35;108165;1284;21981;-68
2023/04/10 09:07:17;;;;;;;3.80;3.00;;;;;;;24.62;55.73;100851.84;108289;1282;21981;-67
2023/04/10 09:09:51;;;;;;;3.20;2.50;;;;;;;24.44;55.61;100851.02;108272;1283;23770;-67
2023/04/10 09:12:17;;;;;;;4.20;2.90;;;;;;;24.21;55.31;100843.48;108220;1283;21984;-67
2023/04/10 09:14:43;;;;;;;3.00;2.70;;;;;;;24.10;55.99;100843.62;108221;1283;21980;-67
2023/04/10 09:17:18;;;;;;;3.20;2.40;;;;;;;24.00;55.67;100843.71;108237;1283;23711;-67
2023/04/10 09:19:47;;;;;;;4.10;3.00;;;;;;;23.97;56.06;100840.61;108221;1283;23050;-67
2023/04/10 09:22:13;;;;;;;3.50;2.50;;;;;;;24.02;56.09;100842.52;108302;1283;22109;-67
2023/04/10 09:24:42;;;;;;;5.90;2.70;;;;;;;24.11;56.64;100838.02;108257;1283;22067;-67
2023/04/10 09:27:09;;;;;;;3.50;2.20;;;;;;;24.24;56.71;100832.04;108288;1283;22020;-67
2023/04/10 09:29:43;;;;;;;3.10;2.10;;;;;;;24.34;56.08;100831.39;108249;1283;22143;-66
2023/04/10 09:32:38;;;;;;;3.30;2.40;;;;;;;24.36;55.40;100833.02;108227;1283;21985;-67
2023/04/10 09:35:04;;;;;;;3.90;2.40;;;;;;;24.30;54.72;100832.00;108239;1283;21958;-67
2023/04/10 09:37:31;;;;;;;3.20;2.20;;;;;;;24.22;54.38;100833.02;108274;1283;21985;-67
2023/04/10 09:39:57;;;;;;;3.00;2.10;;;;;;;24.07;53.80;100829.46;108338;1283;21982;-67
2023/04/10 09:42:34;;;;;;;3.50;2.50;;;;;;;23.93;54.61;100828.15;108059;1283;21985;-66
2023/04/10 09:45:00;;;;;;;3.30;2.30;;;;;;;23.92;55.33;100828.92;108102;1283;24001;-68
2023/04/10 09:47:26;;;;;;;3.40;2.50;;;;;;;23.94;55.85;100827.36;108285;1283;22153;-67
2023/04/10 09:49:57;;;;;;;3.30;2.30;;;;;;;24.04;56.57;100824.08;108252;1283;22000;-67
2023/04/10 09:52:32;;;;;;;3.70;2.10;;;;;;;24.19;56.43;100827.31;108301;1283;21977;-68
2023/04/10 09:55:01;;;;;;;2.70;2.10;;;;;;;24.27;56.01;100828.62;108283;1283;21986;-68
2023/04/10 09:57:29;;;;;;;3.20;2.60;;;;;;;24.25;55.00;100827.45;108265;1283;21993;-67
2023/04/10 10:00:04;;;;;;;3.00;2.40;;;;;;;24.22;55.42;100823.17;108139;1284;22733;-67
2023/04/10 10:02:35;;;;;;;3.40;2.00;;;;;;;24.23;55.20;100825.61;108220;1284;21987;-67
2023/04/10 10:05:01;;;;;;;2.90;2.10;;;;;;;24.19;55.02;100827.66;108177;1284;23702;-67
2023/04/10 10:07:27;;;;;;;2.80;2.10;;;;;;;24.20;55.18;100825.06;108118;1285;21984;-68
2023/04/10 10:09:54;;;;;;;3.00;2.40;;;;;;;24.31;55.77;100824.25;108142;1285;21991;-67
2023/04/10 10:12:26;;;;;;;2.80;2.30;;;;;;;24.44;55.76;100826.83;108250;1285;23709;-66
2023/04/10 10:15:05;;;;;;;3.10;2.20;;;;;;;24.61;55.53;100823.80;108340;1283;21990;-68
2023/04/10 10:17:35;;;;;;;3.40;2.10;;;;;;;24.77;55.58;100825.63;108529;1283;21979;-68
2023/04/10 10:20:08;;;;;;;3.60;2.00;;;;;;;24.94;55.64;100819.13;108272;1281;23099;-67
2023/04/10 10:22:47;;;;;;;3.10;1.70;;;;;;;25.23;55.42;100817.44;108251;1283;21986;-68
2023/04/10 10:25:13;;;;;;;3.70;2.00;;;;;;;25.38;54.33;100813.70;108111;1283;21982;-67
2023/04/10 10:27:39;;;;;;;3.10;2.10;;;;;;;25.48;54.18;100813.79;108234;1284;22055;-68
2023/04/10 10:30:08;;;;;;;3.80;2.10;;;;;;;25.57;54.25;100813.90;108135;1284;21981;-67
2023/04/10 10:32:35;;;;;;;2.40;1.80;;;;;;;25.64;53.80;100816.46;108222;1284;23528;-66
2023/04/10 10:35:06;;;;;;;2.40;1.90;;;;;;;25.69;53.37;100818.10;108232;1283;21986;-67
2023/04/10 10:37:36;;;;;;;5.20;1.70;;;;;;;25.70;52.83;100818.59;108281;1283;21983;-67
2023/04/10 10:40:21;;;;;;;2.60;2.00;;;;;;;25.63;53.09;100815.27;108143;1283;22763;-67
2023/04/10 10:43:09;;;;;;;2.60;2.00;;;;;;;25.57;52.82;100814.08;108184;1283;21984;-67
2023/04/10 10:45:49;;;;;;;4.50;2.20;;;;;;;25.47;52.23;100814.39;108168;1283;22020;-67
2023/04/10 10:48:15;;;;;;;4.80;2.10;;;;;;;25.31;51.81;100814.19;108282;1273;21987;-67
2023/04/10 10:50:56;;;;;;;4.30;2.60;;;;;;;25.17;52.16;100813.37;108165;1284;22024;-67
2023/04/10 10:53:32;;;;;;;3.40;1.90;;;;;;;25.04;52.19;100808.28;108222;1285;21973;-67
2023/04/10 10:56:17;;;;;;;3.00;2.00;;;;;;;24.95;52.34;100803.64;108206;1285;22011;-67
2023/04/10 10:58:47;;;;;;;3.40;1.90;;;;;;;24.98;52.55;100797.19;108181;1284;22014;-66
2023/04/10 11:01:13;;;;;;;3.20;1.70;;;;;;;25.01;52.56;100792.70;108127;1284;21993;-67
2023/04/10 11:03:40;;;;;;;2.00;1.70;;;;;;;25.01;52.73;100792.65;108142;1284;21992;-67
2023/04/10 11:06:08;;;;;;;2.80;2.10;;;;;;;25.13;53.32;100792.60;108219;1284;22059;-66
2023/04/10 11:08:52;;;;;;;2.80;2.00;;;;;;;25.33;53.48;100792.13;108291;1283;21990;-68
2023/04/10 11:11:22;;;;;;;3.20;1.90;;;;;;;25.56;52.91;100789.39;108316;1283;21982;-68
2023/04/10 11:13:52;;;;;;;2.60;1.80;;;;;;;25.77;52.96;100783.94;108370;1283;23615;-68
2023/04/10 11:16:35;;;;;;;2.20;1.60;;;;;;;25.98;51.83;100783.04;108367;1283;22445;-67
2023/04/10 11:19:08;;;;;;;2.40;1.70;;;;;;;26.06;50.71;100780.88;108187;1283;21990;-67
2023/04/10 11:21:34;;;;;;;2.40;1.60;;;;;;;25.97;49.87;100784.52;108306;1280;22023;-67
2023/04/10 11:24:06;;;;;;;2.90;1.80;;;;;;;25.87;50.23;100781.49;108291;1282;21984;-68